Accueil
METAR-TAF:

METAR-TAF

Aéroports :

Base aérienne de Chièvres

Chièvres, Belgique

latitude: 50-34N, longitude: 003-50E, altitude: 60 m

Observation

Le bulletin a été fait il y a 26 minutes, à 08:06 UTC
Vent 7 kt de ouest
Température 12°C
Humidité 88%
Pression 1024 hPa
Visibilité 10 km ou plus

METAR: EBCV 140806Z AUTO 27007KT 9999 FEW007/// BKN024/// OVC110/// 12/10 Q1024 WHT

Heure: 10:32 (08:32 UTC)

Prévision

Le bulletin a été fait il y a 2 heures et 51 minutes, à 05:41 UTC
Prévision valable du 14 à 07 UTC au 14 à 16 UTC
Vent 6 kt de ouest
Visibilité 10 km ou plus
Nuages épars à une hauteur de 3000 ft
Nuages fragmentés à une hauteur de 11000 ft
Temporairement
du 14 à 07 UTC au 14 à 09 UTC
Nuages fragmentés à une hauteur de 1000 ft

TAF: EBCV 140541Z 1407/1416 28006KT 9999 SCT030 BKN110 TEMPO 1407/1409 BKN010 BY EBWM

Observations et prévisions météorologiques de plus de 4000 aéroports (messages METAR et TAF).

Les stations disponibles sont représentées par des disques jaunes et rouges sur la carte.

Passer la souris dessus pour voir le nom de la station.

Cliquer dessus pour voir les observations et prévisions météorologiques.

Pour changer de carte: cliquez sur les boutons verts avec une croix noire pour zoomer, sur le bouton vert avec un tiret pour effectuer un zoom arrière, ou sur les flèches vertes pour les cartes adjacentes.


METAR-TAF: